Time;durP1;ratioP1;P1;durP2;ratioP2;P2;SDS_P1;SDS_P2;PMS_P1;PMS_P2;Temp;Humidity;BMP_temperature;BMP_pressure;BME280_temperature;BME280_humidity;BME280_pressure;Samples;Min_cycle;Max_cycle;Signal;HPM_P1;HPM_P2
2022/07/06 00:00:49;;;;;;;0.80;0.80;;;20.00;87.50;;;;;;5112270;28;20211;-62
2022/07/06 00:03:16;;;;;;;1.10;1.00;;;19.90;87.50;;;;;;5109537;28;20449;-62
2022/07/06 00:05:43;;;;;;;1.08;1.08;;;19.90;87.70;;;;;;5109505;28;20287;-62
2022/07/06 00:08:12;;;;;;;1.25;1.00;;;19.80;87.70;;;;;;5108903;28;20196;-61
2022/07/06 00:10:39;;;;;;;1.30;1.20;;;19.80;88.00;;;;;;5111065;28;20305;-61
2022/07/06 00:13:06;;;;;;;0.98;0.90;;;19.70;88.10;;;;;;5111577;28;20601;-62
2022/07/06 00:15:33;;;;;;;1.58;1.48;;;19.70;88.40;;;;;;5110365;28;20223;-60
2022/07/06 00:18:00;;;;;;;1.08;1.00;;;19.60;88.50;;;;;;5109568;28;20195;-60
2022/07/06 00:20:27;;;;;;;1.25;1.15;;;19.60;88.60;;;;;;5111235;28;20215;-62
2022/07/06 00:22:54;;;;;;;1.02;0.85;;;19.50;88.90;;;;;;5108660;28;20211;-61
2022/07/06 00:25:23;;;;;;;1.13;1.10;;;19.50;89.00;;;;;;5107492;28;20681;-62
2022/07/06 00:27:50;;;;;;;1.00;1.00;;;19.50;89.10;;;;;;5096402;28;20212;-62
2022/07/06 00:30:17;;;;;;;0.95;0.95;;;19.40;89.00;;;;;;5111486;28;20208;-61
2022/07/06 00:32:44;;;;;;;0.80;0.80;;;19.40;89.20;;;;;;5109687;28;20253;-61
2022/07/06 00:35:11;;;;;;;1.05;0.90;;;19.40;90.00;;;;;;5104807;28;20192;-61
2022/07/06 00:37:38;;;;;;;1.23;0.90;;;19.40;89.30;;;;;;5103609;28;20224;-61
2022/07/06 00:40:07;;;;;;;0.90;0.90;;;19.50;89.30;;;;;;5110878;28;20264;-62
2022/07/06 00:42:42;;;;;;;1.00;1.00;;;19.50;89.30;;;;;;5110275;28;20224;-62
2022/07/06 00:45:10;;;;;;;1.35;1.10;;;19.50;89.20;;;;;;5100681;28;20461;-62
2022/07/06 00:47:37;;;;;;;0.80;0.80;;;19.50;89.90;;;;;;5108467;28;20308;-62
2022/07/06 00:50:15;;;;;;;0.70;0.70;;;19.50;89.10;;;;;;5110634;28;20298;-61
2022/07/06 00:52:43;;;;;;;1.15;0.80;;;19.50;89.00;;;;;;5109242;28;20669;-61
2022/07/06 00:55:11;;;;;;;0.90;0.90;;;19.50;89.00;;;;;;5109114;28;20196;-61
2022/07/06 00:57:38;;;;;;;0.95;0.90;;;19.50;89.00;;;;;;5101625;28;20728;-61
2022/07/06 01:00:10;;;;;;;2.47;0.80;;;19.40;89.00;;;;;;5110912;28;20199;-61
2022/07/06 01:02:38;;;;;;;1.02;0.93;;;19.30;89.00;;;;;;5109722;28;20551;-61
2022/07/06 01:05:06;;;;;;;0.85;0.70;;;19.30;89.20;;;;;;5110401;28;20736;-60
2022/07/06 01:07:34;;;;;;;0.70;0.70;;;19.20;89.20;;;;;;5096667;28;20204;-61
2022/07/06 01:10:03;;;;;;;0.88;0.70;;;19.20;89.30;;;;;;5104444;28;20212;-61
2022/07/06 01:12:31;;;;;;;1.15;0.80;;;19.30;89.50;;;;;;5109980;28;20208;-61
2022/07/06 01:14:59;;;;;;;0.85;0.85;;;19.20;89.40;;;;;;5110594;28;20199;-61
2022/07/06 01:17:27;;;;;;;0.90;0.70;;;19.20;89.50;;;;;;5108548;28;20214;-61
2022/07/06 01:19:54;;;;;;;0.70;0.70;;;19.20;89.50;;;;;;5090805;28;20566;-61
2022/07/06 01:22:23;;;;;;;0.70;0.70;;;19.20;89.60;;;;;;5104129;28;20200;-62
2022/07/06 01:24:50;;;;;;;1.10;1.00;;;19.20;89.60;;;;;;5090151;28;20184;-61
2022/07/06 01:27:17;;;;;;;0.95;0.90;;;19.20;89.60;;;;;;5105235;28;20198;-61
2022/07/06 01:29:44;;;;;;;0.82;0.73;;;19.20;90.20;;;;;;5089812;28;20312;-61
2022/07/06 01:32:11;;;;;;;0.70;0.70;;;19.20;89.80;;;;;;5099824;28;20285;-62
2022/07/06 01:34:38;;;;;;;0.80;0.80;;;19.20;89.90;;;;;;5110679;28;20671;-61
2022/07/06 01:37:05;;;;;;;0.80;0.80;;;19.20;89.90;;;;;;5109543;28;20291;-61
2022/07/06 01:39:33;;;;;;;0.70;0.70;;;19.20;90.30;;;;;;5109746;28;20278;-61
2022/07/06 01:42:01;;;;;;;0.80;0.80;;;19.20;90.00;;;;;;5110257;28;20227;-61
2022/07/06 01:44:28;;;;;;;0.80;0.80;;;19.10;90.00;;;;;;5102637;28;20192;-61
2022/07/06 01:46:55;;;;;;;0.80;0.80;;;19.10;90.00;;;;;;5109952;28;20256;-61
2022/07/06 01:49:22;;;;;;;0.80;0.80;;;19.00;90.00;;;;;;5103212;28;20287;-61
2022/07/06 01:51:49;;;;;;;0.80;0.80;;;19.00;90.10;;;;;;5090560;28;20655;-62
2022/07/06 01:54:16;;;;;;;1.05;0.90;;;18.90;90.10;;;;;;5107875;28;20207;-62
2022/07/06 01:56:45;;;;;;;1.88;0.90;;;19.00;90.20;;;;;;5095477;28;20637;-61
2022/07/06 01:59:12;;;;;;;0.60;0.60;;;19.00;90.20;;;;;;5110144;28;20700;-61
2022/07/06 02:01:39;;;;;;;0.80;0.80;;;19.00;90.20;;;;;;5109726;28;20235;-61
2022/07/06 02:04:06;;;;;;;0.73;0.73;;;19.00;90.20;;;;;;5109601;28;20218;-61
2022/07/06 02:06:34;;;;;;;0.73;0.70;;;19.00;90.30;;;;;;5096464;28;20302;-61
2022/07/06 02:09:01;;;;;;;0.75;0.75;;;18.90;90.30;;;;;;5109169;28;20254;-61
2022/07/06 02:11:28;;;;;;;0.75;0.75;;;18.90;90.30;;;;;;5109665;28;20736;-61
2022/07/06 02:13:57;;;;;;;0.70;0.70;;;18.90;90.30;;;;;;5099322;28;20204;-61
2022/07/06 02:16:24;;;;;;;0.65;0.65;;;19.00;90.40;;;;;;5091318;28;20266;-61
2022/07/06 02:18:51;;;;;;;0.50;0.50;;;19.00;90.40;;;;;;5098183;28;20200;-61
2022/07/06 02:21:18;;;;;;;1.80;0.70;;;19.00;90.40;;;;;;5101685;28;20239;-62
2022/07/06 02:23:47;;;;;;;0.60;0.60;;;19.00;90.40;;;;;;5107335;28;20207;-62
2022/07/06 02:26:14;;;;;;;0.70;0.70;;;19.00;90.40;;;;;;5106095;28;20196;-60
2022/07/06 02:28:41;;;;;;;1.00;1.00;;;19.00;90.40;;;;;;5097530;28;20200;-61
2022/07/06 02:31:12;;;;;;;0.70;0.70;;;19.00;90.40;;;;;;5109744;28;20208;-61
2022/07/06 02:33:40;;;;;;;0.77;0.77;;;19.00;90.40;;;;;;5096112;28;20284;-61
2022/07/06 02:36:07;;;;;;;0.70;0.70;;;19.00;90.50;;;;;;5094077;28;20286;-61
2022/07/06 02:38:35;;;;;;;0.80;0.80;;;18.90;90.50;;;;;;5096486;28;20642;-62
2022/07/06 02:41:02;;;;;;;0.70;0.70;;;18.90;90.50;;;;;;5109723;28;20192;-60
2022/07/06 02:43:29;;;;;;;2.92;0.95;;;18.90;90.50;;;;;;5104769;28;20203;-60
2022/07/06 02:45:57;;;;;;;0.82;0.80;;;18.90;90.60;;;;;;5113365;28;20245;-60
2022/07/06 02:48:25;;;;;;;1.38;0.82;;;18.90;90.60;;;;;;5104577;28;20291;-61
2022/07/06 02:50:52;;;;;;;0.70;0.70;;;18.90;90.60;;;;;;5112206;28;20203;-61
2022/07/06 02:53:20;;;;;;;0.80;0.80;;;18.90;90.60;;;;;;5107478;28;20554;-60
2022/07/06 02:55:50;;;;;;;0.50;0.50;;;18.90;90.60;;;;;;5101111;28;20365;-60
2022/07/06 02:58:17;;;;;;;1.15;0.82;;;18.90;90.70;;;;;;5105192;28;20203;-60
2022/07/06 03:00:44;;;;;;;0.63;0.63;;;18.90;90.70;;;;;;5111993;28;20834;-58
2022/07/06 03:03:11;;;;;;;1.73;0.88;;;18.90;90.80;;;;;;5091283;28;20205;-59
2022/07/06 03:05:40;;;;;;;0.80;0.80;;;18.90;90.70;;;;;;5092865;28;20212;-60
2022/07/06 03:08:08;;;;;;;0.60;0.60;;;18.90;90.70;;;;;;5091654;28;20612;-61
2022/07/06 03:10:36;;;;;;;0.68;0.68;;;18.90;91.00;;;;;;5094371;28;20239;-61
2022/07/06 03:13:03;;;;;;;1.05;0.90;;;18.90;90.70;;;;;;5097729;28;20212;-60
2022/07/06 03:15:32;;;;;;;0.73;0.73;;;18.90;90.70;;;;;;5091496;28;20216;-61
2022/07/06 03:17:59;;;;;;;0.60;0.60;;;19.00;90.80;;;;;;5110885;28;20192;-61
2022/07/06 03:20:26;;;;;;;0.88;0.88;;;19.00;90.80;;;;;;5105771;28;20196;-62
2022/07/06 03:22:55;;;;;;;0.88;0.88;;;19.00;90.70;;;;;;5108070;28;20192;-61
2022/07/06 03:25:22;;;;;;;0.90;0.90;;;19.00;90.70;;;;;;5105536;28;20199;-60
2022/07/06 03:27:49;;;;;;;0.98;0.80;;;18.90;90.60;;;;;;5095473;28;20209;-60
2022/07/06 03:30:18;;;;;;;1.02;0.57;;;18.90;90.60;;;;;;5107576;28;20652;-61
2022/07/06 03:32:51;;;;;;;1.15;0.80;;;18.90;90.60;;;;;;5096347;28;20630;-60
2022/07/06 03:35:20;;;;;;;0.50;0.50;;;18.90;90.60;;;;;;5111848;28;20204;-60
2022/07/06 03:37:50;;;;;;;1.17;0.90;;;18.90;90.60;;;;;;5100373;28;20571;-61
2022/07/06 03:40:19;;;;;;;0.75;0.75;;;18.90;90.60;;;;;;5124099;27;20571;-62
2022/07/06 03:42:48;;;;;;;0.70;0.70;;;18.90;90.60;;;;;;5106848;28;20207;-60
2022/07/06 03:45:16;;;;;;;0.60;0.60;;;18.90;90.60;;;;;;5108240;28;20195;-61
2022/07/06 03:47:43;;;;;;;0.43;0.43;;;18.90;90.70;;;;;;5097785;28;20235;-61
2022/07/06 03:50:11;;;;;;;2.60;1.00;;;18.90;90.70;;;;;;5108269;28;20302;-61
2022/07/06 03:52:39;;;;;;;0.70;0.70;;;18.90;90.80;;;;;;5095556;28;20253;-61
2022/07/06 03:55:10;;;;;;;0.68;0.68;;;18.90;90.80;;;;;;5109535;28;20675;-61
2022/07/06 03:57:40;;;;;;;1.25;0.80;;;18.90;90.80;;;;;;5109090;28;20249;-60
2022/07/06 04:00:10;;;;;;;0.75;0.75;;;18.90;90.90;;;;;;5109449;28;20291;-61
2022/07/06 04:02:49;;;;;;;0.60;0.60;;;18.90;90.90;;;;;;5095969;28;20327;-61
2022/07/06 04:05:22;;;;;;;0.60;0.60;;;19.00;90.90;;;;;;5097741;28;20575;-61
2022/07/06 04:07:52;;;;;;;0.60;0.60;;;19.00;91.00;;;;;;5108739;28;20199;-61
2022/07/06 04:10:21;;;;;;;1.38;0.80;;;18.90;90.90;;;;;;5097094;28;20597;-62
2022/07/06 04:12:50;;;;;;;0.68;0.68;;;18.90;90.90;;;;;;5103355;28;20191;-62
2022/07/06 04:15:19;;;;;;;0.60;0.60;;;18.90;90.90;;;;;;5110255;28;20287;-61
2022/07/06 04:17:52;;;;;;;0.73;0.73;;;18.90;91.00;;;;;;5108463;28;20204;-60
2022/07/06 04:20:23;;;;;;;1.80;0.70;;;18.90;90.90;;;;;;5109564;28;20294;-59
2022/07/06 04:22:51;;;;;;;0.60;0.60;;;18.90;91.00;;;;;;5100389;28;20234;-61
2022/07/06 04:25:18;;;;;;;0.75;0.60;;;18.90;91.00;;;;;;5111442;28;20739;-60
2022/07/06 04:27:46;;;;;;;0.82;0.80;;;18.90;91.00;;;;;;5099845;28;20242;-61
2022/07/06 04:30:15;;;;;;;0.95;0.80;;;19.00;91.00;;;;;;5105046;28;20212;-61
2022/07/06 04:32:44;;;;;;;0.75;0.73;;;18.90;91.00;;;;;;5100895;28;20203;-61
2022/07/06 04:35:12;;;;;;;1.10;0.70;;;18.90;91.10;;;;;;5103791;28;20274;-61
2022/07/06 04:37:40;;;;;;;2.33;0.70;;;18.90;91.10;;;;;;5087509;28;20200;-61
2022/07/06 04:40:08;;;;;;;0.95;0.52;;;19.00;91.20;;;;;;5110258;28;20215;-60
2022/07/06 04:42:36;;;;;;;0.80;0.80;;;18.90;91.20;;;;;;5099902;28;20260;-60
2022/07/06 04:45:03;;;;;;;1.58;0.70;;;18.90;91.20;;;;;;5099456;28;20214;-60
2022/07/06 04:47:32;;;;;;;0.80;0.80;;;19.20;91.40;;;;;;5109703;27;20616;-60
2022/07/06 04:49:59;;;;;;;0.60;0.60;;;19.00;91.20;;;;;;5089510;28;20305;-60
2022/07/06 04:52:27;;;;;;;1.20;0.73;;;19.00;91.20;;;;;;5102088;28;20566;-61
2022/07/06 04:54:55;;;;;;;0.80;0.80;;;19.00;91.20;;;;;;5098589;28;20560;-60
2022/07/06 04:57:22;;;;;;;0.80;0.80;;;19.00;91.30;;;;;;5102487;28;20606;-60
2022/07/06 04:59:50;;;;;;;0.80;0.80;;;19.00;91.30;;;;;;5095128;28;20678;-60
2022/07/06 05:02:18;;;;;;;0.90;0.90;;;19.00;91.40;;;;;;5100292;28;20200;-59
2022/07/06 05:04:47;;;;;;;0.88;0.80;;;19.00;91.40;;;;;;5093423;28;20216;-60
2022/07/06 05:07:14;;;;;;;0.85;0.85;;;19.00;91.50;;;;;;5106917;28;20206;-62
2022/07/06 05:09:41;;;;;;;1.05;0.80;;;19.10;91.60;;;;;;5111119;28;20619;-61
2022/07/06 05:12:10;;;;;;;2.55;1.15;;;19.10;91.70;;;;;;5094518;28;20686;-60
2022/07/06 05:14:37;;;;;;;1.00;0.90;;;19.10;91.70;;;;;;5089481;28;20211;-61
2022/07/06 05:17:06;;;;;;;3.28;1.25;;;19.10;91.80;;;;;;5094813;28;20218;-61
2022/07/06 05:19:34;;;;;;;3.05;1.20;;;19.20;91.90;;;;;;5096637;28;20200;-61
2022/07/06 05:22:03;;;;;;;3.58;1.45;;;19.20;92.00;;;;;;5108256;28;20574;-61
2022/07/06 05:24:32;;;;;;;0.70;0.70;;;19.20;92.10;;;;;;5097223;28;20192;-61
2022/07/06 05:26:59;;;;;;;0.77;0.77;;;19.30;92.20;;;;;;5108092;28;20211;-60
2022/07/06 05:29:26;;;;;;;0.70;0.70;;;19.40;92.30;;;;;;5107514;28;20643;-60
2022/07/06 05:31:54;;;;;;;0.80;0.80;;;19.40;92.30;;;;;;5094902;28;20734;-60
2022/07/06 05:34:21;;;;;;;0.70;0.70;;;19.50;92.40;;;;;;5105811;28;20203;-61
2022/07/06 05:36:49;;;;;;;2.17;1.10;;;19.50;92.40;;;;;;5095192;28;20269;-61
2022/07/06 05:39:19;;;;;;;1.77;0.70;;;19.60;92.50;;;;;;5110001;28;20295;-61
2022/07/06 05:41:48;;;;;;;0.80;0.80;;;19.60;92.50;;;;;;5096732;28;20205;-61
2022/07/06 05:44:16;;;;;;;0.68;0.68;;;19.60;92.50;;;;;;5096268;28;20694;-61
2022/07/06 05:46:43;;;;;;;0.77;0.60;;;19.70;92.60;;;;;;5102020;28;20290;-61
2022/07/06 05:51:55;;;;;;;0.60;0.60;;;19.90;92.70;;;;;;5104285;28;20203;-61
2022/07/06 05:54:23;;;;;;;0.93;0.82;;;19.80;92.70;;;;;;5095891;28;20295;-61
2022/07/06 05:56:50;;;;;;;1.48;0.82;;;19.90;92.70;;;;;;5108586;28;20740;-60
2022/07/06 05:59:18;;;;;;;0.80;0.80;;;19.90;92.70;;;;;;5108621;28;20206;-61
2022/07/06 06:01:45;;;;;;;0.90;0.70;;;20.00;92.70;;;;;;5100769;28;20199;-61
2022/07/06 06:04:17;;;;;;;1.15;1.08;;;20.10;92.70;;;;;;5108070;28;20199;-61
2022/07/06 06:06:44;;;;;;;0.70;0.70;;;20.20;92.90;;;;;;5093545;28;20208;-61
2022/07/06 06:09:11;;;;;;;0.70;0.70;;;20.30;92.40;;;;;;5097388;28;20232;-61
2022/07/06 06:11:40;;;;;;;3.70;0.63;;;20.30;92.20;;;;;;5091303;28;20710;-61
2022/07/06 06:14:07;;;;;;;0.98;0.93;;;20.40;92.20;;;;;;5104783;28;20280;-61
2022/07/06 06:16:36;;;;;;;0.77;0.77;;;20.40;92.20;;;;;;5106034;28;20201;-61
2022/07/06 06:19:04;;;;;;;1.08;0.80;;;20.50;92.20;;;;;;5112501;28;20219;-61
2022/07/06 06:21:31;;;;;;;0.60;0.60;;;20.60;92.00;;;;;;5112841;28;20195;-61
2022/07/06 06:23:58;;;;;;;0.80;0.52;;;20.60;91.80;;;;;;5104316;28;20675;-61
2022/07/06 06:26:25;;;;;;;0.80;0.70;;;20.60;91.80;;;;;;5111969;28;20260;-60
2022/07/06 06:28:53;;;;;;;0.65;0.65;;;20.70;91.70;;;;;;5108436;28;20651;-60
2022/07/06 06:31:20;;;;;;;0.50;0.50;;;20.70;91.60;;;;;;5101954;28;20207;-60
2022/07/06 06:33:47;;;;;;;0.93;0.80;;;20.70;91.40;;;;;;5106017;28;20187;-60
2022/07/06 06:36:15;;;;;;;0.57;0.57;;;20.80;91.20;;;;;;5107024;28;20268;-60
2022/07/06 06:38:42;;;;;;;1.83;0.80;;;20.80;91.10;;;;;;5106361;28;20195;-60
2022/07/06 06:41:09;;;;;;;1.42;0.80;;;20.80;90.90;;;;;;5111538;28;20195;-60
2022/07/06 06:43:36;;;;;;;0.55;0.55;;;20.80;90.40;;;;;;5112119;28;20187;-60
2022/07/06 06:46:12;;;;;;;0.45;0.45;;;20.80;90.40;;;;;;5098447;28;20319;-61
2022/07/06 06:48:39;;;;;;;1.85;0.70;;;20.90;90.40;;;;;;5108802;28;20196;-60
2022/07/06 06:51:06;;;;;;;0.70;0.70;;;20.90;90.20;;;;;;5111378;28;20215;-61
2022/07/06 06:53:33;;;;;;;0.73;0.70;;;20.90;90.10;;;;;;5095212;28;20212;-60
2022/07/06 06:56:01;;;;;;;0.70;0.70;;;21.00;90.10;;;;;;5106165;28;20577;-60
2022/07/06 06:58:28;;;;;;;1.45;0.88;;;21.00;90.10;;;;;;5111445;28;20207;-60
2022/07/06 07:00:55;;;;;;;0.60;0.60;;;21.10;90.20;;;;;;5113021;28;20196;-61
2022/07/06 07:03:24;;;;;;;0.70;0.70;;;21.10;90.00;;;;;;5099482;28;20290;-60
2022/07/06 07:05:51;;;;;;;2.38;0.70;;;21.20;90.00;;;;;;5111294;28;20248;-60
2022/07/06 07:08:18;;;;;;;3.58;0.60;;;21.20;89.50;;;;;;5110761;28;20288;-61
2022/07/06 07:10:45;;;;;;;2.25;0.90;;;21.30;89.10;;;;;;5112722;28;20199;-61
2022/07/06 07:13:12;;;;;;;0.73;0.65;;;21.30;88.80;;;;;;5108733;28;20192;-61
2022/07/06 07:15:39;;;;;;;0.63;0.63;;;21.40;88.70;;;;;;5102624;28;20219;-61
2022/07/06 07:18:06;;;;;;;0.68;0.68;;;21.50;88.50;;;;;;5104695;28;20204;-61
2022/07/06 07:20:34;;;;;;;0.60;0.60;;;21.50;88.50;;;;;;5111089;28;20283;-61
2022/07/06 07:23:02;;;;;;;0.63;0.60;;;21.50;88.60;;;;;;5107767;28;20540;-61
2022/07/06 07:25:29;;;;;;;0.68;0.68;;;21.60;88.70;;;;;;5109068;28;20230;-61
2022/07/06 07:27:56;;;;;;;0.95;0.88;;;21.60;88.30;;;;;;5109580;28;20361;-61
2022/07/06 07:30:23;;;;;;;0.90;0.90;;;21.70;88.20;;;;;;5109424;28;20204;-61
2022/07/06 07:32:50;;;;;;;0.82;0.82;;;21.70;88.10;;;;;;5104854;28;20218;-60
2022/07/06 07:35:17;;;;;;;0.77;0.77;;;21.80;87.80;;;;;;5112460;28;20204;-62
2022/07/06 07:37:46;;;;;;;0.85;0.75;;;21.80;87.00;;;;;;5109591;28;20204;-61
2022/07/06 07:40:13;;;;;;;0.70;0.70;;;21.80;86.50;;;;;;5111513;28;20206;-60
2022/07/06 07:42:40;;;;;;;0.73;0.73;;;21.80;86.80;;;;;;5110637;28;20550;-59
2022/07/06 07:45:08;;;;;;;0.65;0.65;;;21.80;86.40;;;;;;5111678;28;20192;-60
2022/07/06 07:47:35;;;;;;;0.55;0.55;;;21.90;85.70;;;;;;5105245;28;20207;-60
2022/07/06 07:50:02;;;;;;;1.35;0.60;;;21.80;85.10;;;;;;5111974;28;20203;-61
2022/07/06 07:52:29;;;;;;;0.65;0.65;;;21.80;84.70;;;;;;5104861;28;20698;-61
2022/07/06 07:54:58;;;;;;;1.02;0.52;;;21.80;84.50;;;;;;5110618;28;20754;-61
2022/07/06 07:57:25;;;;;;;0.77;0.70;;;21.90;84.40;;;;;;5110570;28;20232;-61
2022/07/06 07:59:52;;;;;;;1.35;1.02;;;21.90;84.30;;;;;;5105406;28;20196;-60
2022/07/06 08:02:19;;;;;;;0.50;0.50;;;22.00;83.20;;;;;;5100675;28;20188;-60
2022/07/06 08:04:46;;;;;;;1.20;0.70;;;22.00;82.90;;;;;;5106839;28;20277;-60
2022/07/06 08:07:13;;;;;;;4.50;0.80;;;22.00;82.40;;;;;;5108398;28;20547;-60
2022/07/06 08:09:40;;;;;;;0.80;0.80;;;22.10;81.20;;;;;;5110908;28;20220;-60
2022/07/06 08:12:10;;;;;;;0.70;0.70;;;22.20;81.00;;;;;;5110610;28;20219;-59
2022/07/06 08:14:38;;;;;;;0.82;0.80;;;22.20;79.60;;;;;;5105775;28;20200;-61
2022/07/06 08:17:05;;;;;;;0.80;0.80;;;22.30;78.20;;;;;;5101005;28;20205;-61
2022/07/06 08:19:34;;;;;;;0.60;0.60;;;22.20;77.80;;;;;;5103712;28;20714;-60
2022/07/06 08:22:06;;;;;;;1.15;0.77;;;22.20;77.30;;;;;;5110028;28;20200;-60
2022/07/06 08:24:34;;;;;;;0.80;0.80;;;22.20;76.50;;;;;;5108876;28;20581;-61
2022/07/06 08:27:02;;;;;;;0.50;0.50;;;22.10;76.50;;;;;;5107581;28;20218;-61
2022/07/06 08:29:31;;;;;;;0.60;0.60;;;22.20;76.70;;;;;;5103241;28;20294;-63
2022/07/06 08:31:58;;;;;;;0.50;0.50;;;22.20;76.80;;;;;;5100334;28;20732;-61
2022/07/06 08:34:25;;;;;;;0.60;0.60;;;22.30;76.80;;;;;;5108508;28;20206;-59
2022/07/06 08:36:52;;;;;;;1.38;0.65;;;22.30;76.50;;;;;;5097913;28;20288;-60
2022/07/06 08:39:19;;;;;;;0.57;0.57;;;22.30;76.00;;;;;;5090163;28;20232;-60
2022/07/06 08:41:48;;;;;;;1.20;0.60;;;22.30;75.30;;;;;;5106779;28;20338;-61
2022/07/06 08:44:16;;;;;;;0.50;0.50;;;22.40;75.30;;;;;;5108804;28;20256;-61
2022/07/06 08:46:45;;;;;;;0.47;0.47;;;22.40;75.40;;;;;;5108738;28;20201;-61
2022/07/06 08:49:17;;;;;;;0.60;0.60;;;22.40;75.60;;;;;;5109314;28;20241;-61
2022/07/06 08:51:46;;;;;;;1.55;0.70;;;22.50;75.70;;;;;;5094140;28;20722;-60
2022/07/06 08:54:13;;;;;;;0.50;0.50;;;22.50;75.50;;;;;;5108240;28;20223;-61
2022/07/06 08:56:41;;;;;;;0.70;0.70;;;22.70;75.50;;;;;;5108536;28;20281;-60
2022/07/06 08:59:10;;;;;;;1.40;0.80;;;22.70;74.90;;;;;;5107631;28;20518;-60
2022/07/06 09:01:39;;;;;;;0.60;0.60;;;22.80;74.00;;;;;;5103875;28;20223;-60
2022/07/06 09:04:10;;;;;;;0.73;0.68;;;22.80;73.80;;;;;;5109658;28;20196;-61
2022/07/06 09:06:37;;;;;;;0.85;0.70;;;22.80;73.40;;;;;;5101764;28;20929;-60
2022/07/06 09:09:07;;;;;;;0.93;0.80;;;22.80;73.80;;;;;;5098857;28;20203;-61
2022/07/06 09:11:35;;;;;;;0.75;0.75;;;22.80;73.80;;;;;;5105961;28;20293;-60
2022/07/06 09:14:02;;;;;;;0.98;0.80;;;22.70;74.10;;;;;;5099890;28;20279;-61
2022/07/06 09:16:32;;;;;;;1.52;0.60;;;22.60;73.80;;;;;;5108883;28;20235;-62
2022/07/06 09:18:59;;;;;;;0.40;0.40;;;22.50;73.90;;;;;;5108894;28;20203;-60
2022/07/06 09:21:30;;;;;;;0.38;0.38;;;22.40;74.00;;;;;;5109201;28;20649;-61
2022/07/06 09:23:58;;;;;;;0.52;0.52;;;22.30;74.10;;;;;;5105895;28;20685;-61
2022/07/06 09:26:26;;;;;;;0.40;0.40;;;22.20;74.30;;;;;;5101085;28;20356;-60
2022/07/06 09:28:55;;;;;;;0.40;0.40;;;22.20;74.80;;;;;;5101439;28;20704;-60
2022/07/06 09:31:22;;;;;;;0.50;0.50;;;22.10;74.60;;;;;;5087244;28;20606;-61
2022/07/06 09:33:57;;;;;;;1.23;0.60;;;22.00;74.40;;;;;;5101588;28;20307;-61
2022/07/06 09:36:50;;;;;;;1.13;0.60;;;21.90;74.50;;;;;;5092046;28;20206;-61
2022/07/06 09:39:20;;;;;;;1.05;0.90;;;21.90;74.80;;;;;;5091138;28;20504;-61
2022/07/06 09:41:47;;;;;;;1.02;0.50;;;21.80;75.10;;;;;;5099623;28;20211;-61
2022/07/06 09:44:18;;;;;;;0.45;0.45;;;21.80;75.50;;;;;;5099983;28;20288;-60
2022/07/06 09:46:47;;;;;;;0.77;0.60;;;21.90;75.70;;;;;;5106223;28;20295;-60
2022/07/06 09:49:19;;;;;;;0.40;0.40;;;21.90;76.00;;;;;;5107550;28;20754;-60
2022/07/06 09:51:46;;;;;;;0.40;0.40;;;21.90;76.10;;;;;;5109645;28;20208;-61
2022/07/06 09:54:15;;;;;;;0.70;0.70;;;22.10;76.40;;;;;;5112318;28;20219;-61
2022/07/06 09:56:47;;;;;;;0.85;0.73;;;22.30;76.90;;;;;;5112044;28;20759;-60
2022/07/06 09:59:16;;;;;;;0.70;0.68;;;22.40;76.30;;;;;;5100937;28;20203;-59
2022/07/06 10:01:43;;;;;;;0.93;0.90;;;22.50;75.30;;;;;;5112104;28;20392;-60
2022/07/06 10:04:13;;;;;;;1.23;0.70;;;22.50;74.70;;;;;;5091836;28;20722;-59
2022/07/06 10:06:41;;;;;;;0.50;0.50;;;22.60;74.70;;;;;;5103120;28;20192;-60
2022/07/06 10:09:11;;;;;;;0.75;0.60;;;22.60;74.80;;;;;;5111068;28;20290;-60
2022/07/06 10:11:41;;;;;;;6.75;1.10;;;22.60;74.60;;;;;;5112065;28;20196;-59
2022/07/06 10:14:09;;;;;;;1.08;0.60;;;22.70;75.00;;;;;;5111127;28;20220;-61
2022/07/06 10:16:38;;;;;;;3.83;1.38;;;22.70;74.90;;;;;;5111065;28;20203;-61
2022/07/06 10:19:07;;;;;;;1.73;1.02;;;22.80;75.00;;;;;;5111901;28;20248;-61
2022/07/06 10:21:37;;;;;;;0.70;0.70;;;22.80;75.20;;;;;;5111472;28;20230;-61
2022/07/06 10:24:05;;;;;;;0.70;0.70;;;22.90;75.70;;;;;;5107920;28;20196;-61
2022/07/06 10:26:34;;;;;;;0.68;0.68;;;22.90;75.30;;;;;;5111480;28;20203;-61
2022/07/06 10:29:04;;;;;;;0.65;0.50;;;23.00;74.60;;;;;;5111881;28;20257;-61
2022/07/06 10:31:32;;;;;;;0.52;0.52;;;23.00;74.30;;;;;;5112327;28;20295;-61
2022/07/06 10:34:01;;;;;;;0.50;0.50;;;23.00;73.20;;;;;;5110532;28;20299;-61
2022/07/06 10:36:28;;;;;;;0.47;0.47;;;23.00;72.30;;;;;;5110042;28;20234;-61
2022/07/06 10:38:56;;;;;;;5.70;1.13;;;23.10;72.20;;;;;;5110258;28;20192;-60
2022/07/06 10:41:31;;;;;;;1.63;0.93;;;23.10;72.10;;;;;;5111477;28;20204;-60
2022/07/06 10:44:00;;;;;;;0.60;0.60;;;23.10;72.40;;;;;;5103790;28;20312;-60
2022/07/06 10:46:36;;;;;;;0.63;0.50;;;23.10;72.70;;;;;;5111487;28;20195;-61
2022/07/06 10:49:16;;;;;;;0.40;0.40;;;23.30;72.90;;;;;;5111074;27;20195;-61
2022/07/06 10:51:43;;;;;;;0.50;0.50;;;23.30;73.10;;;;;;5110642;28;20276;-60
2022/07/06 10:54:10;;;;;;;2.15;0.80;;;23.40;74.40;;;;;;5110789;28;20235;-60
2022/07/06 10:56:39;;;;;;;0.70;0.70;;;23.50;73.90;;;;;;5111394;28;20256;-60
2022/07/06 10:59:11;;;;;;;0.82;0.77;;;23.40;73.80;;;;;;5092710;28;20203;-60
2022/07/06 11:01:40;;;;;;;0.75;0.75;;;23.40;74.10;;;;;;5109689;28;20531;-60
2022/07/06 11:04:09;;;;;;;1.20;0.60;;;23.40;73.90;;;;;;5112123;28;20188;-60
2022/07/06 11:06:38;;;;;;;0.95;0.85;;;23.40;73.90;;;;;;5110891;28;20222;-60
2022/07/06 11:09:06;;;;;;;0.82;0.82;;;23.40;74.00;;;;;;5110774;28;20248;-60
2022/07/06 11:11:41;;;;;;;0.40;0.40;;;23.50;74.00;;;;;;5109929;28;20196;-59
2022/07/06 11:14:10;;;;;;;0.85;0.80;;;23.50;73.50;;;;;;5110634;28;20287;-60
2022/07/06 11:16:41;;;;;;;0.43;0.43;;;23.60;71.90;;;;;;5111427;28;20199;-61
2022/07/06 11:19:11;;;;;;;0.65;0.60;;;23.50;70.80;;;;;;5112054;28;20195;-60
2022/07/06 11:21:45;;;;;;;2.38;0.65;;;23.50;70.50;;;;;;5109389;28;20264;-61
2022/07/06 11:24:14;;;;;;;18.10;1.20;;;23.50;70.80;;;;;;5095337;28;20717;-62
2022/07/06 11:26:43;;;;;;;0.88;0.88;;;23.50;71.60;;;;;;5110708;28;20196;-61
2022/07/06 11:29:11;;;;;;;0.60;0.60;;;23.60;72.50;;;;;;5111054;28;20613;-61
2022/07/06 11:31:41;;;;;;;2.50;0.57;;;23.70;73.80;;;;;;5110994;28;20318;-60
2022/07/06 11:34:10;;;;;;;0.70;0.70;;;23.80;73.80;;;;;;5110717;27;20547;-60
2022/07/06 11:36:38;;;;;;;0.70;0.70;;;23.90;74.10;;;;;;5110093;28;20296;-60
2022/07/06 11:39:06;;;;;;;1.77;0.90;;;23.90;74.20;;;;;;5108092;28;20298;-60
2022/07/06 11:41:34;;;;;;;1.08;0.70;;;24.00;74.30;;;;;;5109953;28;20618;-60
2022/07/06 11:44:01;;;;;;;1.27;0.60;;;24.00;74.50;;;;;;5107402;28;20634;-60
2022/07/06 11:46:30;;;;;;;0.50;0.50;;;24.10;75.20;;;;;;5110461;28;20303;-60
2022/07/06 11:48:59;;;;;;;0.75;0.50;;;24.10;74.40;;;;;;5103795;28;20208;-60
2022/07/06 11:51:28;;;;;;;2.25;0.80;;;24.00;74.10;;;;;;5111611;28;20672;-60
2022/07/06 11:53:58;;;;;;;0.70;0.70;;;23.90;73.40;;;;;;5109320;28;20228;-61
2022/07/06 11:56:27;;;;;;;0.60;0.60;;;23.80;73.60;;;;;;5107489;28;20258;-60
2022/07/06 11:58:55;;;;;;;1.20;0.70;;;23.70;73.90;;;;;;5097554;28;20512;-61
2022/07/06 12:01:23;;;;;;;14.38;1.48;;;23.70;74.30;;;;;;5111059;28;20667;-59
2022/07/06 12:03:51;;;;;;;1.75;0.75;;;23.70;74.70;;;;;;5109712;28;20571;-61
2022/07/06 12:06:24;;;;;;;0.70;0.60;;;23.80;74.90;;;;;;5111499;28;20745;-61
2022/07/06 12:08:52;;;;;;;10.18;2.28;;;23.80;74.30;;;;;;5109180;28;20188;-60
2022/07/06 12:11:40;;;;;;;3.40;1.00;;;23.80;73.60;;;;;;5110401;28;20690;-60
2022/07/06 12:14:14;;;;;;;2.60;0.60;;;23.90;73.70;;;;;;5108210;28;20321;-60
2022/07/06 12:16:42;;;;;;;0.50;0.50;;;24.00;73.70;;;;;;5106042;28;20259;-60
2022/07/06 12:19:11;;;;;;;0.57;0.50;;;24.00;73.60;;;;;;5100568;28;20191;-60
2022/07/06 12:21:44;;;;;;;0.60;0.50;;;24.00;73.90;;;;;;5099718;28;20207;-60
2022/07/06 12:24:11;;;;;;;9.48;1.05;;;24.10;73.80;;;;;;5101383;28;20185;-61
2022/07/06 12:26:41;;;;;;;3.42;0.80;;;24.10;72.50;;;;;;5106550;28;20219;-61
2022/07/06 12:29:10;;;;;;;0.60;0.60;;;24.10;72.20;;;;;;5110472;28;20226;-60
2022/07/06 12:31:39;;;;;;;3.05;1.00;;;24.20;71.90;;;;;;5110666;28;20241;-60
2022/07/06 12:34:12;;;;;;;0.70;0.70;;;24.20;70.80;;;;;;5110280;28;20607;-63
2022/07/06 12:36:45;;;;;;;1.65;0.60;;;24.30;70.80;;;;;;5096085;28;20556;-60
2022/07/06 12:39:13;;;;;;;0.75;0.60;;;24.30;69.60;;;;;;5109031;28;20195;-61
2022/07/06 12:41:46;;;;;;;1.55;0.77;;;24.20;68.80;;;;;;5109838;28;20188;-61
2022/07/06 12:44:13;;;;;;;3.60;0.70;;;24.10;68.50;;;;;;5109666;28;20195;-60
2022/07/06 12:46:42;;;;;;;0.73;0.50;;;24.10;68.80;;;;;;5109676;28;20245;-60
2022/07/06 12:49:15;;;;;;;0.68;0.60;;;24.00;69.30;;;;;;5109376;28;20578;-61
2022/07/06 12:51:58;;;;;;;0.55;0.47;;;23.90;69.50;;;;;;5104013;28;20223;-60
2022/07/06 12:54:27;;;;;;;0.98;0.63;;;23.80;70.10;;;;;;5106913;28;20227;-59